createdAt,value
2015-09-09T00:00:14.336Z,79
2015-09-09T00:00:32.758Z,78
2015-09-09T00:00:51.307Z,77
2015-09-09T00:01:09.791Z,76
2015-09-09T00:01:28.322Z,77
2015-09-09T00:01:46.887Z,77
2015-09-09T00:02:05.262Z,77
2015-09-09T00:02:23.746Z,77
2015-09-09T00:02:42.139Z,78
2015-09-09T00:03:00.639Z,76
2015-09-09T00:03:19.139Z,77
2015-09-09T00:03:37.076Z,77
2015-09-09T00:03:55.530Z,78
2015-09-09T00:04:14.046Z,77
2015-09-09T00:04:32.437Z,78
2015-09-09T00:04:51.096Z,79
2015-09-09T00:05:09.596Z,78
2015-09-09T00:05:28.033Z,77
2015-09-09T00:05:46.456Z,77
2015-09-09T00:06:05.003Z,76
2015-09-09T00:06:23.659Z,76
2015-09-09T00:06:41.925Z,77
2015-09-09T00:07:00.381Z,71
2015-09-09T00:07:18.881Z,69
2015-09-09T00:07:37.303Z,67
2015-09-09T00:07:55.835Z,64
2015-09-09T00:08:14.366Z,67
2015-09-09T00:08:32.757Z,67
2015-09-09T00:08:51.166Z,67
2015-09-09T00:09:09.588Z,68
2015-09-09T00:09:28.119Z,67
2015-09-09T00:09:46.666Z,66
2015-09-09T00:10:05.183Z,66
2015-09-09T00:10:23.667Z,68
2015-09-09T00:10:42.183Z,65
2015-09-09T00:11:00.732Z,64
2015-09-09T00:11:19.154Z,66
2015-09-09T00:11:37.622Z,66
2015-09-09T00:11:56.157Z,66
2015-09-09T00:12:14.563Z,67
2015-09-09T00:12:32.954Z,65
2015-09-09T00:12:51.438Z,64
2015-09-09T00:13:09.830Z,66
2015-09-09T00:13:28.236Z,63
2015-09-09T00:13:46.673Z,64
2015-09-09T00:14:05.066Z,64
2015-09-09T00:14:23.425Z,61
2015-09-09T00:14:41.800Z,64
2015-09-09T00:15:00.193Z,64
2015-09-09T00:15:18.584Z,63
2015-09-09T00:15:37.005Z,64
2015-09-09T00:15:55.568Z,63
2015-09-09T00:16:13.993Z,62
2015-09-09T00:16:32.493Z,63
2015-09-09T00:16:50.883Z,63
2015-09-09T00:17:09.244Z,64
2015-09-09T00:17:27.634Z,63
2015-09-09T00:17:46.291Z,63
2015-09-09T00:18:04.761Z,62
2015-09-09T00:18:23.136Z,61
2015-09-09T00:18:41.558Z,61
2015-09-09T00:18:59.949Z,60
2015-09-09T00:19:18.310Z,61
2015-09-09T00:19:36.982Z,60
2015-09-09T00:19:55.388Z,61
2015-09-09T00:20:13.750Z,62
2015-09-09T00:20:32.125Z,60
2015-09-09T00:20:50.578Z,61
2015-09-09T00:21:09.033Z,62
2015-09-09T00:21:27.408Z,61
2015-09-09T00:21:45.767Z,62
2015-09-09T00:22:04.316Z,62
2015-09-09T00:22:22.707Z,61
2015-09-09T00:22:41.144Z,61
2015-09-09T00:22:59.613Z,62
2015-09-09T00:23:18.021Z,61
2015-09-09T00:23:36.381Z,61
2015-09-09T00:23:54.771Z,61
2015-09-09T00:24:13.227Z,60
2015-09-09T00:24:31.602Z,61
2015-09-09T00:24:49.977Z,61
2015-09-09T00:25:08.463Z,60
2015-09-09T00:25:26.854Z,60
2015-09-09T00:25:45.291Z,60
2015-09-09T00:26:03.666Z,60
2015-09-09T00:26:22.168Z,60
2015-09-09T00:26:40.746Z,61
2015-09-09T00:26:59.277Z,61
2015-09-09T00:27:17.686Z,61
2015-09-09T00:27:36.123Z,60
2015-09-09T00:27:54.686Z,62
2015-09-09T00:28:13.094Z,61
2015-09-09T00:28:31.485Z,63
2015-09-09T00:28:50.000Z,62
2015-09-09T00:29:08.360Z,62
2015-09-09T00:29:26.876Z,62
2015-09-09T00:29:45.470Z,62
2015-09-09T00:30:04.173Z,60
2015-09-09T00:30:22.551Z,62
2015-09-09T00:30:40.942Z,63
2015-09-09T00:30:59.160Z,60
2015-09-09T00:31:17.646Z,59
2015-09-09T00:31:36.177Z,61
2015-09-09T00:31:54.568Z,60
2015-09-09T00:32:13.021Z,64
2015-09-09T00:32:31.430Z,63
2015-09-09T00:32:49.805Z,61
2015-09-09T00:33:08.196Z,64
2015-09-09T00:33:26.557Z,62
2015-09-09T00:33:44.932Z,62
2015-09-09T00:34:03.307Z,62
2015-09-09T00:34:21.714Z,62
2015-09-09T00:34:40.246Z,60
2015-09-09T00:34:58.667Z,62
2015-09-09T00:35:17.058Z,63
2015-09-09T00:35:35.561Z,62
2015-09-09T00:35:53.952Z,62
2015-09-09T00:36:12.405Z,63
2015-09-09T00:36:30.812Z,62
2015-09-09T00:36:49.468Z,61
2015-09-09T00:37:07.906Z,62
2015-09-09T00:37:26.284Z,62
2015-09-09T00:37:44.706Z,61
2015-09-09T00:38:03.112Z,63
2015-09-09T00:38:21.471Z,60
2015-09-09T00:38:39.879Z,59
2015-09-09T00:38:58.238Z,59
2015-09-09T00:39:16.691Z,59
2015-09-09T00:39:35.115Z,60
2015-09-09T00:39:53.599Z,59
2015-09-09T00:40:12.006Z,60
2015-09-09T00:40:30.399Z,60
2015-09-09T00:40:48.790Z,58
2015-09-09T00:41:07.165Z,59
2015-09-09T00:41:25.665Z,59
2015-09-09T00:41:44.198Z,58
2015-09-09T00:42:02.604Z,60
2015-09-09T00:42:20.964Z,59
2015-09-09T00:42:39.324Z,59
2015-09-09T00:42:57.887Z,58
2015-09-09T00:43:16.387Z,60
2015-09-09T00:43:34.764Z,59
2015-09-09T00:43:53.217Z,59
2015-09-09T00:44:11.639Z,58
2015-09-09T00:44:30.045Z,58
2015-09-09T00:44:48.625Z,59
2015-09-09T00:45:07.078Z,57
2015-09-09T00:45:25.437Z,57
2015-09-09T00:45:43.893Z,57
2015-09-09T00:46:02.455Z,56
2015-09-09T00:46:20.924Z,56
2015-09-09T00:46:39.285Z,56
2015-09-09T00:46:57.832Z,57
2015-09-09T00:47:16.379Z,57
2015-09-09T00:47:34.879Z,59
2015-09-09T00:47:53.381Z,58
2015-09-09T00:48:11.740Z,58
2015-09-09T00:48:30.225Z,57
2015-09-09T00:48:48.711Z,59
2015-09-09T00:49:07.086Z,58
2015-09-09T00:49:25.461Z,59
2015-09-09T00:49:43.916Z,56
2015-09-09T00:50:02.447Z,58
2015-09-09T00:50:20.822Z,54
2015-09-09T00:50:39.291Z,53
2015-09-09T00:50:57.746Z,53
2015-09-09T00:51:16.184Z,54
2015-09-09T00:51:34.637Z,55
2015-09-09T00:51:53.013Z,56
2015-09-09T00:52:11.482Z,55
2015-09-09T00:52:30.122Z,55
2015-09-09T00:52:48.657Z,54
2015-09-09T00:53:07.157Z,54
2015-09-09T00:53:25.532Z,54
2015-09-09T00:53:44.110Z,54
2015-09-09T00:54:02.487Z,54
2015-09-09T00:54:20.877Z,53
2015-09-09T00:54:39.237Z,54
2015-09-09T00:54:57.800Z,53
2015-09-09T00:55:16.160Z,55
2015-09-09T00:55:34.597Z,53
2015-09-09T00:55:53.022Z,54
2015-09-09T00:56:11.569Z,54
2015-09-09T00:56:30.100Z,54
2015-09-09T00:56:48.569Z,56
2015-09-09T00:57:06.930Z,54
2015-09-09T00:57:25.290Z,53
2015-09-09T00:57:43.680Z,54
2015-09-09T00:58:02.151Z,53
2015-09-09T00:58:20.573Z,53
2015-09-09T00:58:38.963Z,52
2015-09-09T00:58:57.512Z,52
2015-09-09T00:59:15.887Z,53
2015-09-09T00:59:34.419Z,54
2015-09-09T00:59:52.809Z,53
2015-09-09T01:00:11.466Z,54
2015-09-09T01:00:29.935Z,52
2015-09-09T01:00:48.341Z,53
2015-09-09T01:01:06.829Z,54
2015-09-09T01:01:25.204Z,55
2015-09-09T01:01:43.594Z,52
2015-09-09T01:02:02.018Z,52
2015-09-09T01:02:20.628Z,53
2015-09-09T01:02:39.237Z,53
2015-09-09T01:02:57.675Z,53
2015-09-09T01:03:16.083Z,53
2015-09-09T01:03:34.442Z,52
2015-09-09T01:03:53.130Z,53
2015-09-09T01:04:11.631Z,53
2015-09-09T01:04:30.084Z,54
2015-09-09T01:04:48.474Z,54
2015-09-09T01:05:06.898Z,54
2015-09-09T01:05:25.398Z,52
2015-09-09T01:05:43.773Z,51
2015-09-09T01:06:02.336Z,52
2015-09-09T01:06:20.728Z,52
2015-09-09T01:06:39.119Z,53
2015-09-09T01:06:57.494Z,52
2015-09-09T01:07:15.918Z,54
2015-09-09T01:07:34.402Z,53
2015-09-09T01:07:52.809Z,52
2015-09-09T01:08:11.170Z,54
2015-09-09T01:08:29.732Z,52
2015-09-09T01:08:48.092Z,53
2015-09-09T01:09:06.607Z,53
2015-09-09T01:09:25.172Z,53
2015-09-09T01:09:43.922Z,53
2015-09-09T01:10:02.484Z,54
2015-09-09T01:10:21.034Z,53
2015-09-09T01:10:39.487Z,54
2015-09-09T01:10:57.878Z,54
2015-09-09T01:11:16.301Z,53
2015-09-09T01:11:34.863Z,53
2015-09-09T01:11:53.285Z,53
2015-09-09T01:12:11.879Z,54
2015-09-09T01:12:30.365Z,55
2015-09-09T01:12:48.772Z,55
2015-09-09T01:13:07.178Z,53
2015-09-09T01:13:25.571Z,54
2015-09-09T01:13:43.992Z,53
2015-09-09T01:14:02.383Z,55
2015-09-09T01:14:20.823Z,54
2015-09-09T01:14:39.338Z,54
2015-09-09T01:14:57.744Z,55
2015-09-09T01:15:16.323Z,55
2015-09-09T01:15:34.809Z,54
2015-09-09T01:15:53.184Z,54
2015-09-09T01:16:11.590Z,54
2015-09-09T01:16:30.030Z,54
2015-09-09T01:16:48.420Z,54
2015-09-09T01:17:06.905Z,54
2015-09-09T01:17:25.641Z,54
2015-09-09T01:17:44.016Z,54
2015-09-09T01:18:02.391Z,52
2015-09-09T01:18:20.922Z,54
2015-09-09T01:18:39.440Z,54
2015-09-09T01:18:57.799Z,53
2015-09-09T01:19:16.268Z,54
2015-09-09T01:19:34.692Z,53
2015-09-09T01:19:53.083Z,53
2015-09-09T01:20:11.473Z,53
2015-09-09T01:20:29.725Z,54
2015-09-09T01:20:48.272Z,54
2015-09-09T01:21:06.694Z,53
2015-09-09T01:21:25.069Z,54
2015-09-09T01:21:43.587Z,54
2015-09-09T01:22:02.165Z,52
2015-09-09T01:22:20.633Z,52
2015-09-09T01:22:39.119Z,54
2015-09-09T01:22:57.572Z,52
2015-09-09T01:23:15.963Z,54
2015-09-09T01:23:34.356Z,53
2015-09-09T01:23:52.856Z,53
2015-09-09T01:24:11.231Z,54
2015-09-09T01:24:29.731Z,52
2015-09-09T01:24:48.155Z,52
2015-09-09T01:25:06.514Z,55
2015-09-09T01:25:24.905Z,55
2015-09-09T01:25:43.345Z,55
2015-09-09T01:26:01.813Z,54
2015-09-09T01:26:20.220Z,54
2015-09-09T01:26:38.597Z,54
2015-09-09T01:26:57.003Z,53
2015-09-09T01:27:15.487Z,53
2015-09-09T01:27:33.878Z,53
2015-09-09T01:27:52.333Z,53
2015-09-09T01:28:10.786Z,53
2015-09-09T01:28:29.239Z,53
2015-09-09T01:28:47.882Z,53
2015-09-09T01:29:06.304Z,55
2015-09-09T01:29:24.757Z,54
2015-09-09T01:29:43.227Z,53
2015-09-09T01:30:01.648Z,52
2015-09-09T01:30:20.023Z,51
2015-09-09T01:30:38.367Z,53
2015-09-09T01:30:56.760Z,52
2015-09-09T01:31:15.104Z,50
2015-09-09T01:31:33.760Z,53
2015-09-09T01:31:52.169Z,52
2015-09-09T01:32:10.716Z,52
2015-09-09T01:32:29.310Z,52
2015-09-09T01:32:47.952Z,53
2015-09-09T01:33:06.421Z,49
2015-09-09T01:33:24.671Z,52
2015-09-09T01:33:43.249Z,51
2015-09-09T01:34:01.797Z,51
2015-09-09T01:34:20.281Z,51
2015-09-09T01:34:38.672Z,52
2015-09-09T01:34:57.066Z,52
2015-09-09T01:35:15.456Z,52
2015-09-09T01:35:34.159Z,52
2015-09-09T01:35:52.660Z,51
2015-09-09T01:36:11.035Z,51
2015-09-09T01:36:29.395Z,52
2015-09-09T01:36:47.801Z,52
2015-09-09T01:37:06.367Z,51
2015-09-09T01:37:24.804Z,53
2015-09-09T01:37:43.382Z,51
2015-09-09T01:38:01.930Z,51
2015-09-09T01:38:20.383Z,51
2015-09-09T01:38:38.789Z,51
2015-09-09T01:38:57.276Z,52
2015-09-09T01:39:15.870Z,51
2015-09-09T01:39:34.354Z,51
2015-09-09T01:39:52.745Z,51
2015-09-09T01:40:11.154Z,51
2015-09-09T01:40:29.607Z,51
2015-09-09T01:40:48.029Z,51
2015-09-09T01:41:06.546Z,50
2015-09-09T01:41:24.968Z,51
2015-09-09T01:41:43.406Z,51
2015-09-09T01:42:01.814Z,50
2015-09-09T01:42:20.220Z,53
2015-09-09T01:42:38.752Z,53
2015-09-09T01:42:57.299Z,51
2015-09-09T01:43:15.768Z,51
2015-09-09T01:43:34.143Z,52
2015-09-09T01:43:52.706Z,51
2015-09-09T01:44:11.161Z,51
2015-09-09T01:44:29.598Z,51
2015-09-09T01:44:47.989Z,49
2015-09-09T01:45:06.367Z,51
2015-09-09T01:45:24.836Z,51
2015-09-09T01:45:43.195Z,51
2015-09-09T01:46:01.602Z,51
2015-09-09T01:46:20.118Z,51
2015-09-09T01:46:38.712Z,52
2015-09-09T01:46:57.102Z,53
2015-09-09T01:47:15.496Z,50
2015-09-09T01:47:33.887Z,51
2015-09-09T01:47:52.262Z,51
2015-09-09T01:48:10.669Z,51
2015-09-09T01:48:29.075Z,52
2015-09-09T01:48:47.434Z,51
2015-09-09T01:49:05.811Z,51
2015-09-09T01:49:24.202Z,51
2015-09-09T01:49:42.593Z,51
2015-09-09T01:50:01.265Z,52
2015-09-09T01:50:19.767Z,52
2015-09-09T01:50:38.298Z,52
2015-09-09T01:50:56.845Z,52
2015-09-09T01:51:15.472Z,51
2015-09-09T01:51:33.940Z,52
2015-09-09T01:51:52.331Z,50
2015-09-09T01:52:10.739Z,52
2015-09-09T01:52:29.224Z,52
2015-09-09T01:52:47.802Z,51
2015-09-09T01:53:06.161Z,51
2015-09-09T01:53:24.616Z,51
2015-09-09T01:53:43.038Z,52
2015-09-09T01:54:01.413Z,51
2015-09-09T01:54:19.931Z,51
2015-09-09T01:54:38.337Z,51
2015-09-09T01:54:56.837Z,51
2015-09-09T01:55:15.433Z,50
2015-09-09T01:55:34.027Z,51
2015-09-09T01:55:52.542Z,51
2015-09-09T01:56:10.917Z,51
2015-09-09T01:56:29.404Z,51
2015-09-09T01:56:48.575Z,51
2015-09-09T01:57:06.950Z,51
2015-09-09T01:57:25.359Z,51
2015-09-09T01:57:43.734Z,51
2015-09-09T01:58:02.140Z,51
2015-09-09T01:58:20.516Z,51
2015-09-09T01:58:39.016Z,51
2015-09-09T01:58:57.625Z,50
2015-09-09T01:59:16.065Z,49
2015-09-09T01:59:34.612Z,49
2015-09-09T01:59:53.034Z,49
2015-09-09T02:00:11.784Z,50
2015-09-09T02:00:30.223Z,50
2015-09-09T02:00:48.942Z,49
2015-09-09T02:01:07.364Z,49
2015-09-09T02:01:25.992Z,49
2015-09-09T02:01:44.351Z,51
2015-09-09T02:02:02.742Z,49
2015-09-09T02:02:21.103Z,49
2015-09-09T02:02:39.478Z,48
2015-09-09T02:02:57.837Z,48
2015-09-09T02:03:16.244Z,48
2015-09-09T02:03:34.838Z,48
2015-09-09T02:03:53.245Z,48
2015-09-09T02:04:11.620Z,47
2015-09-09T02:04:30.106Z,47
2015-09-09T02:04:48.465Z,47
2015-09-09T02:05:06.903Z,47
2015-09-09T02:05:25.453Z,48
2015-09-09T02:05:43.922Z,47
2015-09-09T02:06:02.515Z,48
2015-09-09T02:06:20.984Z,47
2015-09-09T02:06:39.345Z,46
2015-09-09T02:06:58.033Z,48
2015-09-09T02:07:16.408Z,48
2015-09-09T02:07:34.909Z,48
2015-09-09T02:07:53.440Z,47
2015-09-09T02:08:11.893Z,47
2015-09-09T02:08:30.302Z,47
2015-09-09T02:08:48.755Z,48
2015-09-09T02:09:07.114Z,48
2015-09-09T02:09:25.552Z,48
2015-09-09T02:09:43.944Z,49
2015-09-09T02:10:02.335Z,49
2015-09-09T02:10:20.694Z,49
2015-09-09T02:10:39.181Z,48
2015-09-09T02:10:57.571Z,49
2015-09-09T02:11:16.009Z,48
2015-09-09T02:11:34.479Z,47
2015-09-09T02:11:52.901Z,48
2015-09-09T02:12:11.308Z,48
2015-09-09T02:12:29.901Z,47
2015-09-09T02:12:48.356Z,47
2015-09-09T02:13:06.856Z,48
2015-09-09T02:13:25.466Z,45
2015-09-09T02:13:43.999Z,46
2015-09-09T02:14:02.452Z,44
2015-09-09T02:14:20.827Z,45
2015-09-09T02:14:39.407Z,45
2015-09-09T02:14:57.798Z,44
2015-09-09T02:15:16.235Z,43
2015-09-09T02:15:34.704Z,45
2015-09-09T02:15:53.299Z,45
2015-09-09T02:16:11.940Z,45
2015-09-09T02:16:30.549Z,43
2015-09-09T02:16:48.911Z,45
2015-09-09T02:17:07.380Z,45
2015-09-09T02:17:25.786Z,44
2015-09-09T02:17:44.257Z,45
2015-09-09T02:18:02.695Z,44
2015-09-09T02:18:21.085Z,44
2015-09-09T02:18:39.524Z,42
2015-09-09T02:18:58.071Z,43
2015-09-09T02:19:16.461Z,45
2015-09-09T02:19:34.867Z,46
2015-09-09T02:19:53.495Z,46
2015-09-09T02:20:11.855Z,45
2015-09-09T02:20:30.370Z,46
2015-09-09T02:20:48.840Z,44
2015-09-09T02:21:07.246Z,45
2015-09-09T02:21:25.668Z,47
2015-09-09T02:21:44.046Z,44
2015-09-09T02:22:02.406Z,45
2015-09-09T02:22:20.953Z,45
2015-09-09T02:22:39.468Z,45
2015-09-09T02:22:57.875Z,45
2015-09-09T02:23:16.485Z,44
2015-09-09T02:23:35.172Z,45
2015-09-09T02:23:53.800Z,46
2015-09-09T02:24:12.207Z,46
2015-09-09T02:24:30.675Z,45
2015-09-09T02:24:49.177Z,43
2015-09-09T02:25:07.552Z,44
2015-09-09T02:25:25.974Z,44
2015-09-09T02:25:44.349Z,44
2015-09-09T02:26:02.898Z,44
2015-09-09T02:26:21.398Z,44
2015-09-09T02:26:39.836Z,44
2015-09-09T02:26:58.305Z,44
2015-09-09T02:27:16.758Z,44
2015-09-09T02:27:35.196Z,45
2015-09-09T02:27:53.589Z,43
2015-09-09T02:28:11.979Z,43
2015-09-09T02:28:30.432Z,44
2015-09-09T02:28:49.010Z,42
2015-09-09T02:29:07.435Z,42
2015-09-09T02:29:25.982Z,43
2015-09-09T02:29:44.357Z,43
2015-09-09T02:30:02.718Z,45
2015-09-09T02:30:21.139Z,44
2015-09-09T02:30:39.530Z,44
2015-09-09T02:30:58.063Z,45
2015-09-09T02:31:16.423Z,44
2015-09-09T02:31:34.845Z,46
2015-09-09T02:31:53.282Z,43
2015-09-09T02:32:11.690Z,43
2015-09-09T02:32:30.253Z,44
2015-09-09T02:32:48.706Z,43
2015-09-09T02:33:07.131Z,43
2015-09-09T02:33:25.615Z,43
2015-09-09T02:33:44.037Z,44
2015-09-09T02:34:02.429Z,44
2015-09-09T02:34:20.835Z,44
2015-09-09T02:34:39.304Z,43
2015-09-09T02:34:57.679Z,43
2015-09-09T02:35:16.040Z,44
2015-09-09T02:35:34.243Z,44
2015-09-09T02:35:52.603Z,44
2015-09-09T02:36:11.137Z,44
2015-09-09T02:36:29.762Z,44
2015-09-09T02:36:48.121Z,45
2015-09-09T02:37:06.716Z,44
2015-09-09T02:37:25.153Z,44
2015-09-09T02:37:43.575Z,44
2015-09-09T02:38:01.982Z,44
2015-09-09T02:38:20.468Z,44
2015-09-09T02:38:38.827Z,44
2015-09-09T02:38:57.187Z,45
2015-09-09T02:39:15.751Z,45
2015-09-09T02:39:34.111Z,46
2015-09-09T02:39:52.470Z,43
2015-09-09T02:40:10.941Z,43
2015-09-09T02:40:29.409Z,44
2015-09-09T02:40:47.956Z,47
2015-09-09T02:41:06.472Z,46
2015-09-09T02:41:24.911Z,47
2015-09-09T02:41:44.240Z,42
2015-09-09T02:42:02.693Z,46
2015-09-09T02:42:21.101Z,46
2015-09-09T02:42:39.632Z,41
2015-09-09T02:42:58.070Z,46
2015-09-09T02:43:16.572Z,46
2015-09-09T02:43:35.072Z,41
2015-09-09T02:43:53.494Z,41
2015-09-09T02:44:11.915Z,40
2015-09-09T02:44:30.339Z,39
2015-09-09T02:44:48.777Z,40
2015-09-09T02:45:07.199Z,39
2015-09-09T02:45:25.623Z,40
2015-09-09T02:45:44.107Z,39
2015-09-09T02:46:02.685Z,40
2015-09-09T02:46:21.124Z,39
2015-09-09T02:46:39.592Z,40
2015-09-09T02:46:58.030Z,38
2015-09-09T02:47:16.467Z,37
2015-09-09T02:47:34.830Z,37
2015-09-09T02:47:53.252Z,37
2015-09-09T02:48:11.830Z,37
2015-09-09T02:48:30.394Z,38
2015-09-09T02:48:48.972Z,36
2015-09-09T02:49:07.441Z,34
2015-09-09T02:49:25.802Z,36
2015-09-09T02:49:44.224Z,35
2015-09-09T02:50:02.849Z,35
2015-09-09T02:50:21.256Z,39
2015-09-09T02:50:39.647Z,37
2015-09-09T02:50:58.100Z,37
2015-09-09T02:51:16.460Z,35
2015-09-09T02:51:34.900Z,36
2015-09-09T02:51:53.525Z,36
2015-09-09T02:52:11.947Z,35
2015-09-09T02:52:30.371Z,36
2015-09-09T02:52:48.933Z,36
2015-09-09T02:53:07.308Z,37
2015-09-09T02:53:25.887Z,37
2015-09-09T02:53:44.295Z,36
2015-09-09T02:54:02.685Z,36
2015-09-09T02:54:21.107Z,36
2015-09-09T02:54:39.874Z,37
2015-09-09T02:54:58.280Z,38
2015-09-09T02:55:16.733Z,38
2015-09-09T02:55:35.157Z,37
2015-09-09T02:55:53.673Z,36
2015-09-09T02:56:12.235Z,36
2015-09-09T02:56:30.579Z,38
2015-09-09T02:56:49.004Z,37
2015-09-09T02:57:07.379Z,37
2015-09-09T02:57:25.770Z,39
2015-09-09T02:57:44.286Z,36
2015-09-09T02:58:02.833Z,37
2015-09-09T02:58:21.192Z,36
2015-09-09T02:58:39.663Z,36
2015-09-09T02:58:58.194Z,37
2015-09-09T02:59:16.648Z,36
2015-09-09T02:59:35.337Z,37
2015-09-09T02:59:53.712Z,37
2015-09-09T03:00:12.368Z,37
2015-09-09T03:00:30.759Z,37
2015-09-09T03:00:49.245Z,36
2015-09-09T03:01:07.870Z,36
2015-09-09T03:01:26.308Z,35
2015-09-09T03:01:44.669Z,36
2015-09-09T03:02:03.091Z,36
2015-09-09T03:02:21.513Z,36
2015-09-09T03:02:39.921Z,36
2015-09-09T03:02:58.281Z,37
2015-09-09T03:03:16.749Z,36
2015-09-09T03:03:35.140Z,36
2015-09-09T03:03:53.829Z,37
2015-09-09T03:04:12.189Z,37
2015-09-09T03:04:30.626Z,37
2015-09-09T03:04:49.129Z,36
2015-09-09T03:05:07.551Z,36
2015-09-09T03:05:25.973Z,37
2015-09-09T03:05:44.490Z,38
2015-09-09T03:06:02.880Z,37
2015-09-09T03:06:21.396Z,37
2015-09-09T03:06:39.771Z,38
2015-09-09T03:06:58.164Z,38
2015-09-09T03:07:16.664Z,36
2015-09-09T03:07:35.070Z,38
2015-09-09T03:07:53.431Z,37
2015-09-09T03:08:12.009Z,36
2015-09-09T03:08:30.447Z,36
2015-09-09T03:08:48.948Z,37
2015-09-09T03:09:07.588Z,38
2015-09-09T03:09:26.182Z,38
2015-09-09T03:09:44.542Z,37
2015-09-09T03:10:02.966Z,36
2015-09-09T03:10:21.466Z,36
2015-09-09T03:10:40.045Z,37
2015-09-09T03:10:58.484Z,37
2015-09-09T03:11:16.906Z,37
2015-09-09T03:11:35.406Z,36
2015-09-09T03:11:53.783Z,36
2015-09-09T03:12:12.189Z,37
2015-09-09T03:12:30.549Z,36
2015-09-09T03:12:49.034Z,37
2015-09-09T03:13:07.565Z,36
2015-09-09T03:13:26.034Z,36
2015-09-09T03:13:44.409Z,36
2015-09-09T03:14:02.974Z,36
2015-09-09T03:14:21.631Z,36
2015-09-09T03:14:40.053Z,35
2015-09-09T03:14:58.476Z,36
2015-09-09T03:15:17.055Z,36
2015-09-09T03:15:35.414Z,36
2015-09-09T03:15:53.821Z,36
2015-09-09T03:16:12.212Z,36
2015-09-09T03:16:30.774Z,36
2015-09-09T03:16:49.227Z,36
2015-09-09T03:17:07.809Z,36
2015-09-09T03:17:26.309Z,36
2015-09-09T03:17:44.715Z,35
2015-09-09T03:18:03.294Z,37
2015-09-09T03:18:21.731Z,36
2015-09-09T03:18:40.356Z,37
2015-09-09T03:18:58.781Z,37
2015-09-09T03:19:17.234Z,37
2015-09-09T03:19:35.609Z,36
2015-09-09T03:19:54.094Z,37
2015-09-09T03:20:12.565Z,36
2015-09-09T03:20:30.940Z,36
2015-09-09T03:20:49.643Z,37
2015-09-09T03:21:08.348Z,36
2015-09-09T03:21:26.801Z,35
2015-09-09T03:21:45.379Z,35
2015-09-09T03:22:03.849Z,35
2015-09-09T03:22:22.458Z,35
2015-09-09T03:22:41.005Z,35
2015-09-09T03:22:59.757Z,35
2015-09-09T03:23:18.148Z,37
2015-09-09T03:23:36.523Z,35
2015-09-09T03:23:54.913Z,35
2015-09-09T03:24:13.306Z,37
2015-09-09T03:24:31.775Z,35
2015-09-09T03:24:50.134Z,36
2015-09-09T03:25:08.511Z,36
2015-09-09T03:25:26.933Z,36
2015-09-09T03:25:45.355Z,37
2015-09-09T03:26:03.888Z,37
2015-09-09T03:26:22.310Z,35
2015-09-09T03:26:40.872Z,34
2015-09-09T03:26:59.247Z,36
2015-09-09T03:27:17.796Z,36
2015-09-09T03:27:36.499Z,35
2015-09-09T03:27:54.953Z,36
2015-09-09T03:28:13.439Z,35
2015-09-09T03:28:31.876Z,35
2015-09-09T03:28:50.236Z,35
2015-09-09T03:29:08.628Z,35
2015-09-09T03:29:27.035Z,36
2015-09-09T03:29:45.660Z,36
2015-09-09T03:30:04.050Z,35
2015-09-09T03:30:22.536Z,35
2015-09-09T03:30:40.895Z,34
2015-09-09T03:30:59.286Z,36
2015-09-09T03:31:17.836Z,36
2015-09-09T03:31:36.336Z,35
2015-09-09T03:31:54.757Z,35
2015-09-09T03:32:13.134Z,34
2015-09-09T03:32:31.634Z,35
2015-09-09T03:32:50.072Z,34
2015-09-09T03:33:08.746Z,34
2015-09-09T03:33:27.121Z,33
2015-09-09T03:33:45.605Z,34
2015-09-09T03:34:04.215Z,34
2015-09-09T03:34:22.904Z,34
2015-09-09T03:34:41.248Z,33
2015-09-09T03:34:59.670Z,34
2015-09-09T03:35:18.109Z,34
2015-09-09T03:35:36.640Z,33
2015-09-09T03:35:55.250Z,33
2015-09-09T03:36:13.658Z,34
2015-09-09T03:36:32.252Z,34
2015-09-09T03:36:50.642Z,34
2015-09-09T03:37:09.033Z,34
2015-09-09T03:37:27.581Z,34
2015-09-09T03:37:46.143Z,33
2015-09-09T03:38:04.550Z,34
2015-09-09T03:38:22.599Z,34
2015-09-09T03:38:41.005Z,33
2015-09-09T03:38:59.442Z,34
2015-09-09T03:39:17.867Z,34
2015-09-09T03:39:36.242Z,34
2015-09-09T03:39:54.617Z,34
2015-09-09T03:40:13.164Z,34
2015-09-09T03:40:31.604Z,34
2015-09-09T03:40:49.994Z,33
2015-09-09T03:41:08.354Z,34
2015-09-09T03:41:26.855Z,33
2015-09-09T03:41:45.183Z,33
2015-09-09T03:42:03.605Z,35
2015-09-09T03:42:22.311Z,35
2015-09-09T03:42:40.842Z,35
2015-09-09T03:42:59.217Z,34
2015-09-09T03:43:17.623Z,32
2015-09-09T03:43:36.046Z,33
2015-09-09T03:43:54.734Z,34
2015-09-09T03:44:12.984Z,33
2015-09-09T03:44:31.376Z,34
2015-09-09T03:44:49.798Z,34
2015-09-09T03:45:08.236Z,34
2015-09-09T03:45:26.675Z,34
2015-09-09T03:45:45.081Z,34
2015-09-09T03:46:03.738Z,34
2015-09-09T03:46:22.115Z,32
2015-09-09T03:46:40.583Z,34
2015-09-09T03:46:58.958Z,33
2015-09-09T03:47:17.318Z,33
2015-09-09T03:47:35.679Z,32
2015-09-09T03:47:54.226Z,32
2015-09-09T03:48:12.632Z,33
2015-09-09T03:48:31.103Z,33
2015-09-09T03:48:49.775Z,34
2015-09-09T03:49:08.197Z,35
2015-09-09T03:49:26.558Z,34
2015-09-09T03:49:45.121Z,35
2015-09-09T03:50:03.605Z,34
2015-09-09T03:50:21.871Z,34
2015-09-09T03:50:40.294Z,35
2015-09-09T03:50:58.685Z,36
2015-09-09T03:51:17.060Z,33
2015-09-09T03:51:35.656Z,34
2015-09-09T03:51:54.296Z,35
2015-09-09T03:52:12.671Z,35
2015-09-09T03:52:31.422Z,35
2015-09-09T03:52:49.938Z,35
2015-09-09T03:53:08.297Z,33
2015-09-09T03:53:26.766Z,33
2015-09-09T03:53:45.175Z,34
2015-09-09T03:54:03.566Z,34
2015-09-09T03:54:22.160Z,34
2015-09-09T03:54:40.631Z,34
2015-09-09T03:54:59.052Z,35
2015-09-09T03:55:17.412Z,35
2015-09-09T03:55:35.820Z,34
2015-09-09T03:55:54.289Z,35
2015-09-09T03:56:12.726Z,35
2015-09-09T03:56:31.570Z,35
2015-09-09T03:56:49.946Z,36
2015-09-09T03:57:08.524Z,34
2015-09-09T03:57:26.930Z,35
2015-09-09T03:57:45.340Z,35
2015-09-09T03:58:03.840Z,35
2015-09-09T03:58:22.262Z,35
2015-09-09T03:58:40.654Z,36
2015-09-09T03:58:59.014Z,36
2015-09-09T03:59:17.576Z,35
2015-09-09T03:59:36.092Z,35
2015-09-09T03:59:54.624Z,36
2015-09-09T04:00:13.030Z,36
2015-09-09T04:00:31.405Z,35
2015-09-09T04:00:50.063Z,35
2015-09-09T04:01:08.563Z,37
2015-09-09T04:01:27.095Z,36
2015-09-09T04:01:45.581Z,35
2015-09-09T04:02:04.190Z,37
2015-09-09T04:02:22.862Z,37
2015-09-09T04:02:41.443Z,35
2015-09-09T04:02:59.865Z,35
2015-09-09T04:03:18.272Z,34
2015-09-09T04:03:36.678Z,33
2015-09-09T04:03:55.070Z,34
2015-09-09T04:04:13.445Z,35
2015-09-09T04:04:31.977Z,34
2015-09-09T04:04:50.385Z,34
2015-09-09T04:05:08.822Z,35
2015-09-09T04:05:27.182Z,36
2015-09-09T04:05:45.741Z,38
2015-09-09T04:06:04.100Z,34
2015-09-09T04:06:22.725Z,36
2015-09-09T04:06:41.178Z,34
2015-09-09T04:06:59.613Z,34
2015-09-09T04:07:17.972Z,36
2015-09-09T04:07:36.410Z,35
2015-09-09T04:07:55.015Z,33
2015-09-09T04:08:13.375Z,35
2015-09-09T04:08:31.781Z,35
2015-09-09T04:08:50.417Z,34
2015-09-09T04:09:09.385Z,36
2015-09-09T04:09:27.760Z,37
2015-09-09T04:09:46.213Z,36
2015-09-09T04:10:04.789Z,38
2015-09-09T04:10:23.351Z,38
2015-09-09T04:10:41.851Z,38
2015-09-09T04:11:00.431Z,38
2015-09-09T04:11:18.978Z,38
2015-09-09T04:11:37.556Z,37
2015-09-09T04:11:56.057Z,39
2015-09-09T04:12:14.448Z,40
2015-09-09T04:12:32.807Z,40
2015-09-09T04:12:51.261Z,40
2015-09-09T04:13:09.668Z,41
2015-09-09T04:13:28.059Z,40
2015-09-09T04:13:46.684Z,43
2015-09-09T04:14:05.295Z,41
2015-09-09T04:14:23.732Z,43
2015-09-09T04:14:42.248Z,44
2015-09-09T04:15:00.732Z,45
2015-09-09T04:15:19.107Z,45
2015-09-09T04:15:37.561Z,45
2015-09-09T04:15:55.920Z,49
2015-09-09T04:16:14.338Z,49
2015-09-09T04:16:33.026Z,51
2015-09-09T04:16:51.463Z,52
2015-09-09T04:17:09.987Z,52
2015-09-09T04:17:28.440Z,54
2015-09-09T04:17:47.065Z,55
2015-09-09T04:18:05.478Z,56
2015-09-09T04:18:23.884Z,57
2015-09-09T04:18:42.509Z,59
2015-09-09T04:19:01.048Z,60
2015-09-09T04:19:19.641Z,62
2015-09-09T04:19:38.063Z,63
2015-09-09T04:19:56.438Z,65
2015-09-09T04:20:14.867Z,67
2015-09-09T04:20:33.336Z,69
2015-09-09T04:20:51.773Z,71
2015-09-09T04:21:10.200Z,72
2015-09-09T04:21:28.778Z,75
2015-09-09T04:21:47.153Z,77
2015-09-09T04:22:05.533Z,78
2015-09-09T04:22:24.065Z,81
2015-09-09T04:22:42.502Z,84
2015-09-09T04:23:00.893Z,87
2015-09-09T04:23:19.255Z,89